Obelix — 7JAX — position and weather

sailwx.info

Track history (hours):
 
Tides and Currents Weather Stations Pressure Air Temp Water Temp Dewpoint Dewpoint Depression Visibility Wind Speed Wind Dir Waves Ship Positions

Obelix

Last reported at 2017-Feb-20 08:27 UTC. Time now 2017-Feb-21 21:25 UTC.
Position N 34°40' E 134°48'.

Length 74 m; draft 4.4 m.

Type: Tanker. MMSI: 432528000.

Date/timePositionNaut miles runAvg speedWind from/ knotsBaromVisibWave heightAir tempDewpointWater temp
2017-Feb-20 08:27N 34°40' E 134°48'1111.0
2017-Feb-20 07:24N 34°37' E 135°02'1011.6
2017-Feb-20 06:33N 34°35' E 135°13'1010.2
2017-Feb-20 05:33N 34°33' E 135°25'0 0.2
2017-Feb-20 04:24N 34°33' E 135°25'0 0.0
2017-Feb-20 03:12N 34°33' E 135°25'0 0.0
2017-Feb-20 02:30N 34°33' E 135°25'0 0.0
2017-Feb-20 01:12N 34°33' E 135°25'0 0.3
2017-Feb-20 00:33N 34°33' E 135°25'4 1.9
2017-Feb-19 22:12N 34°32' E 135°20'0 0.0
2017-Feb-19 21:30N 34°32' E 135°20'0 0.0
2017-Feb-19 19:30N 34°32' E 135°20'0 0.0
2017-Feb-19 18:24N 34°32' E 135°20'0 0.1
2017-Feb-19 17:24N 34°32' E 135°20'0 0.0
2017-Feb-19 16:30N 34°32' E 135°20'0 0.0
2017-Feb-19 15:24N 34°32' E 135°20'0 0.0
2017-Feb-19 14:24N 34°32' E 135°20'0 0.0
2017-Feb-19 13:18N 34°32' E 135°20'0 0.6
2017-Feb-19 12:31N 34°32' E 135°19'1212.4
2017-Feb-19 11:33N 34°35' E 135°05'203 4.3
2017-Feb-17 12:32N 34°53' E 139°12'13 9.4
2017-Feb-17 11:06N 34°60' E 139°26'7 8.1
2017-Feb-17 10:15N 35°03' E 139°33'5 7.2
2017-Feb-17 09:33N 35°05' E 139°39'3 3.3
2017-Feb-17 08:33N 35°07' E 139°42'3 2.8
2017-Feb-17 07:32N 35°09' E 139°44'5 4.7
2017-Feb-17 06:33N 35°14' E 139°46'1110.7
2017-Feb-17 05:34N 35°24' E 139°43'8 7.4
2017-Feb-17 04:33N 35°31' E 139°46'0 0.0
2017-Feb-17 03:33N 35°31' E 139°46'0 0.0
2017-Feb-17 02:33N 35°31' E 139°46'0 0.0
2017-Feb-17 01:24N 35°31' E 139°46'0 0.0
2017-Feb-17 00:33N 35°31' E 139°46'0 0.0
2017-Feb-16 23:33N 35°31' E 139°46'4 3.5
2017-Feb-16 22:33N 35°28' E 139°44'0 0.0
2017-Feb-16 21:33N 35°28' E 139°44'0 0.0
2017-Feb-16 20:33N 35°28' E 139°44'0 0.0
2017-Feb-16 19:32N 35°28' E 139°44'7 6.8
2017-Feb-16 18:33N 35°21' E 139°45'1212.0
2017-Feb-16 17:33N 35°09' E 139°47'1212.3
2017-Feb-16 16:33N 35°00' E 139°36'34910.5
2017-Feb-15 07:20N 34°04' E 132°39'1010.5
2017-Feb-15 06:20N 34°03' E 132°26'4 0.1
2017-Feb-13 18:33N 34°01' E 132°30'13011.8
2017-Feb-13 07:33N 34°37' E 135°01'9 9.4
2017-Feb-13 06:33N 34°34' E 135°12'1110.4
2017-Feb-13 05:32N 34°33' E 135°25'1 0.7
2017-Feb-13 04:28N 34°33' E 135°25'0 0.0
2017-Feb-13 03:28N 34°33' E 135°25'0 0.0
2017-Feb-13 02:28N 34°33' E 135°25'0 0.0
2017-Feb-13 01:28N 34°33' E 135°25'0 0.0
2017-Feb-13 00:29N 34°33' E 135°25'4 4.3
2017-Feb-12 23:27N 34°32' E 135°20'0 0.0
2017-Feb-12 21:33N 34°32' E 135°20'0 0.0
2017-Feb-12 20:33N 34°32' E 135°20'0 0.0
2017-Feb-12 19:33N 34°32' E 135°20'0 0.0
2017-Feb-12 18:33N 34°32' E 135°20'0 0.0
2017-Feb-12 17:33N 34°32' E 135°20'0 0.0
2017-Feb-12 16:27N 34°32' E 135°20'0 0.0
2017-Feb-12 15:27N 34°32' E 135°20'0 0.0
2017-Feb-12 13:33N 34°32' E 135°20'0 0.0
2017-Feb-12 11:27N 34°32' E 135°20'0 0.0
2017-Feb-12 09:09N 34°32' E 135°20'0 0.0
2017-Feb-12 08:33N 34°32' E 135°20'0 0.0
2017-Feb-12 07:33N 34°32' E 135°20'0 0.0
2017-Feb-12 06:33N 34°32' E 135°20'0 0.0
2017-Feb-12 05:33N 34°32' E 135°20'0 0.0
2017-Feb-12 04:33N 34°32' E 135°20'0 0.0
2017-Feb-12 03:21N 34°32' E 135°20'2 2.3
2017-Feb-12 02:32N 34°33' E 135°18'1111.6
2017-Feb-12 01:33N 34°35' E 135°04'10 9.4
2017-Feb-12 00:29N 34°34' E 134°52'11311.3
2017-Feb-11 14:33N 33°58' E 132°43'1313.0
2017-Feb-11 13:33N 33°49' E 132°32'1513.1
2017-Feb-11 12:26N 33°43' E 132°15'7 0.4
2017-Feb-10 18:33N 33°50' E 132°14'1312.6
2017-Feb-10 17:33N 33°52' E 132°29'1413.5
2017-Feb-10 16:32N 33°59' E 132°43'  
Track history (hours):
 
Tides and Currents Weather Stations Pressure Air Temp Water Temp Dewpoint Dewpoint Depression Visibility Wind Speed Wind Dir Waves Ship Positions

Obelix

Last reported at 2017-Feb-20 08:27 UTC. Time now 2017-Feb-21 21:25 UTC.
Position N 34°40' E 134°48'.

Length 74 m; draft 4.4 m.

Type: Tanker. MMSI: 432528000.

Date/timePositionNaut miles runAvg speedWind from/ knotsBaromVisibWave heightAir tempDewpointWater temp
2017-Feb-20 08:27N 34°40' E 134°48'1111.0
2017-Feb-20 07:24N 34°37' E 135°02'1011.6
2017-Feb-20 06:33N 34°35' E 135°13'1010.2
2017-Feb-20 05:33N 34°33' E 135°25'0 0.2
2017-Feb-20 04:24N 34°33' E 135°25'0 0.0
2017-Feb-20 03:12N 34°33' E 135°25'0 0.0
2017-Feb-20 02:30N 34°33' E 135°25'0 0.0
2017-Feb-20 01:12N 34°33' E 135°25'0 0.3
2017-Feb-20 00:33N 34°33' E 135°25'4 1.9
2017-Feb-19 22:12N 34°32' E 135°20'0 0.0
2017-Feb-19 21:30N 34°32' E 135°20'0 0.0
2017-Feb-19 19:30N 34°32' E 135°20'0 0.0
2017-Feb-19 18:24N 34°32' E 135°20'0 0.1
2017-Feb-19 17:24N 34°32' E 135°20'0 0.0
2017-Feb-19 16:30N 34°32' E 135°20'0 0.0
2017-Feb-19 15:24N 34°32' E 135°20'0 0.0
2017-Feb-19 14:24N 34°32' E 135°20'0 0.0
2017-Feb-19 13:18N 34°32' E 135°20'0 0.6
2017-Feb-19 12:31N 34°32' E 135°19'1212.4
2017-Feb-19 11:33N 34°35' E 135°05'203 4.3
2017-Feb-17 12:32N 34°53' E 139°12'13 9.4
2017-Feb-17 11:06N 34°60' E 139°26'7 8.1
2017-Feb-17 10:15N 35°03' E 139°33'5 7.2
2017-Feb-17 09:33N 35°05' E 139°39'3 3.3
2017-Feb-17 08:33N 35°07' E 139°42'3 2.8
2017-Feb-17 07:32N 35°09' E 139°44'5 4.7
2017-Feb-17 06:33N 35°14' E 139°46'1110.7
2017-Feb-17 05:34N 35°24' E 139°43'8 7.4
2017-Feb-17 04:33N 35°31' E 139°46'0 0.0
2017-Feb-17 03:33N 35°31' E 139°46'0 0.0
2017-Feb-17 02:33N 35°31' E 139°46'0 0.0
2017-Feb-17 01:24N 35°31' E 139°46'0 0.0
2017-Feb-17 00:33N 35°31' E 139°46'0 0.0
2017-Feb-16 23:33N 35°31' E 139°46'4 3.5
2017-Feb-16 22:33N 35°28' E 139°44'0 0.0
2017-Feb-16 21:33N 35°28' E 139°44'0 0.0
2017-Feb-16 20:33N 35°28' E 139°44'0 0.0
2017-Feb-16 19:32N 35°28' E 139°44'7 6.8
2017-Feb-16 18:33N 35°21' E 139°45'1212.0
2017-Feb-16 17:33N 35°09' E 139°47'1212.3
2017-Feb-16 16:33N 35°00' E 139°36'34910.5
2017-Feb-15 07:20N 34°04' E 132°39'1010.5
2017-Feb-15 06:20N 34°03' E 132°26'4 0.1
2017-Feb-13 18:33N 34°01' E 132°30'13011.8
2017-Feb-13 07:33N 34°37' E 135°01'9 9.4
2017-Feb-13 06:33N 34°34' E 135°12'1110.4
2017-Feb-13 05:32N 34°33' E 135°25'1 0.7
2017-Feb-13 04:28N 34°33' E 135°25'0 0.0
2017-Feb-13 03:28N 34°33' E 135°25'0 0.0
2017-Feb-13 02:28N 34°33' E 135°25'0 0.0
2017-Feb-13 01:28N 34°33' E 135°25'0 0.0
2017-Feb-13 00:29N 34°33' E 135°25'4 4.3
2017-Feb-12 23:27N 34°32' E 135°20'0 0.0
2017-Feb-12 21:33N 34°32' E 135°20'0 0.0
2017-Feb-12 20:33N 34°32' E 135°20'0 0.0
2017-Feb-12 19:33N 34°32' E 135°20'0 0.0
2017-Feb-12 18:33N 34°32' E 135°20'0 0.0
2017-Feb-12 17:33N 34°32' E 135°20'0 0.0
2017-Feb-12 16:27N 34°32' E 135°20'0 0.0
2017-Feb-12 15:27N 34°32' E 135°20'0 0.0
2017-Feb-12 13:33N 34°32' E 135°20'0 0.0
2017-Feb-12 11:27N 34°32' E 135°20'0 0.0
2017-Feb-12 09:09N 34°32' E 135°20'0 0.0
2017-Feb-12 08:33N 34°32' E 135°20'0 0.0
2017-Feb-12 07:33N 34°32' E 135°20'0 0.0
2017-Feb-12 06:33N 34°32' E 135°20'0 0.0
2017-Feb-12 05:33N 34°32' E 135°20'0 0.0
2017-Feb-12 04:33N 34°32' E 135°20'0 0.0
2017-Feb-12 03:21N 34°32' E 135°20'2 2.3
2017-Feb-12 02:32N 34°33' E 135°18'1111.6
2017-Feb-12 01:33N 34°35' E 135°04'10 9.4
2017-Feb-12 00:29N 34°34' E 134°52'11311.3
2017-Feb-11 14:33N 33°58' E 132°43'1313.0
2017-Feb-11 13:33N 33°49' E 132°32'1513.1
2017-Feb-11 12:26N 33°43' E 132°15'7 0.4
2017-Feb-10 18:33N 33°50' E 132°14'1312.6
2017-Feb-10 17:33N 33°52' E 132°29'1413.5
2017-Feb-10 16:32N 33°59' E 132°43'  

Dump ship's entire track history